Time;durP1;ratioP1;P1;durP2;ratioP2;P2;SDS_P1;SDS_P2;PMS_P1;PMS_P2;Temp;Humidity;BMP_temperature;BMP_pressure;BME280_temperature;BME280_humidity;BME280_pressure;Samples;Min_cycle;Max_cycle;Signal;HPM_P1;HPM_P2
2021/03/29 00:00:43;;;;;;;;;;;5.70;97.50;;;;;;5071350;28;20345;-75
2021/03/29 00:03:08;;;;;;;;;;;5.60;97.70;;;;;;5070314;28;20289;-75
2021/03/29 00:05:34;;;;;;;;;;;5.50;97.80;;;;;;5071081;28;19908;-75
2021/03/29 00:08:02;;;;;;;;;;;5.60;97.90;;;;;;5071007;28;19909;-75
2021/03/29 00:10:29;;;;;;;;;;;5.60;98.00;;;;;;5069871;28;19914;-75
2021/03/29 00:12:55;;;;;;;;;;;5.60;97.90;;;;;;5069504;28;19965;-75
2021/03/29 00:15:25;;;;;;;;;;;5.70;97.80;;;;;;5071117;28;20074;-75
2021/03/29 00:17:50;;;;;;;;;;;5.70;97.60;;;;;;5069213;28;19909;-75
2021/03/29 00:20:21;;;;;;;;;;;5.80;97.90;;;;;;5071144;28;20370;-75
2021/03/29 00:22:46;;;;;;;;;;;5.90;97.90;;;;;;5072342;28;20369;-75
2021/03/29 00:25:12;;;;;;;;;;;5.90;97.80;;;;;;5070989;28;19909;-75
2021/03/29 00:27:38;;;;;;;;;;;5.90;97.90;;;;;;5074423;28;19959;-75
2021/03/29 00:30:11;;;;;;;;;;;5.80;98.10;;;;;;5075022;28;19978;-75
2021/03/29 00:32:37;;;;;;;;;;;5.70;97.90;;;;;;5074895;28;19909;-75
2021/03/29 00:35:03;;;;;;;;;;;5.80;97.70;;;;;;5074780;28;20366;-75
2021/03/29 00:37:29;;;;;;;;;;;5.80;97.60;;;;;;5074594;28;19916;-75
2021/03/29 00:39:55;;;;;;;;;;;5.90;97.40;;;;;;5074460;28;19912;-75
2021/03/29 00:42:20;;;;;;;;;;;5.90;97.20;;;;;;5074627;28;20369;-75
2021/03/29 00:44:46;;;;;;;;;;;6.00;97.00;;;;;;5074707;28;19909;-75
2021/03/29 00:47:12;;;;;;;;;;;6.00;97.00;;;;;;5074365;28;19909;-75
2021/03/29 00:49:38;;;;;;;;;;;6.10;96.90;;;;;;5074616;28;19919;-75
2021/03/29 00:52:04;;;;;;;;;;;6.10;96.70;;;;;;5074591;28;19908;-75
2021/03/29 00:54:29;;;;;;;;;;;6.20;96.30;;;;;;5072183;28;19913;-75
2021/03/29 00:56:55;;;;;;;;;;;6.20;96.00;;;;;;5093000;28;20309;-75
2021/03/29 00:59:21;;;;;;;;;;;6.30;95.70;;;;;;5094803;28;20376;-75
2021/03/29 01:01:47;;;;;;;;;;;6.30;95.80;;;;;;5094511;28;20365;-75
2021/03/29 01:04:14;;;;;;;;;;;6.40;95.30;;;;;;5094529;28;19908;-75
2021/03/29 01:06:40;;;;;;;;;;;6.40;94.80;;;;;;5094188;28;20321;-75
2021/03/29 01:09:08;;;;;;;;;;;6.50;94.30;;;;;;5093053;28;20006;-75
2021/03/29 01:11:36;;;;;;;;;;;6.50;94.10;;;;;;5094342;28;19909;-75
2021/03/29 01:14:04;;;;;;;;;;;6.60;94.10;;;;;;5094394;28;20559;-75
2021/03/29 01:16:39;;;;;;;;;;;6.60;94.00;;;;;;5093955;28;20390;-75
2021/03/29 01:19:09;;;;;;;;;;;6.60;93.90;;;;;;5094101;28;19912;-75
2021/03/29 01:21:43;;;;;;;;;;;6.60;93.60;;;;;;5094086;28;20298;-75
2021/03/29 01:24:35;;;;;;;;;;;6.60;93.50;;;;;;5078162;28;20281;-75
2021/03/29 01:27:01;;;;;;;;;;;6.60;93.50;;;;;;5063865;28;19990;-75
2021/03/29 01:29:35;;;;;;;;;;;6.60;93.40;;;;;;5073904;28;19967;-75
2021/03/29 01:32:02;;;;;;;;;;;6.60;93.60;;;;;;5073579;28;19915;-75
2021/03/29 01:34:29;;;;;;;;;;;6.50;94.20;;;;;;5072615;28;19908;-75
2021/03/29 01:36:55;;;;;;;;;;;6.40;94.80;;;;;;5071983;28;20438;-75
2021/03/29 01:39:21;;;;;;;;;;;6.20;95.30;;;;;;5073610;28;19951;-75
2021/03/29 01:41:47;;;;;;;;;;;6.10;95.50;;;;;;5073493;28;19908;-75
2021/03/29 01:44:13;;;;;;;;;;;6.10;95.80;;;;;;5072572;28;19909;-75
2021/03/29 01:46:39;;;;;;;;;;;5.90;96.10;;;;;;5073113;28;19912;-75
2021/03/29 01:49:05;;;;;;;;;;;5.80;96.30;;;;;;5073396;28;20280;-75
2021/03/29 01:51:30;;;;;;;;;;;5.70;96.50;;;;;;5073456;28;20357;-75
2021/03/29 01:53:56;;;;;;;;;;;5.60;96.70;;;;;;5069019;28;19958;-75
2021/03/29 01:56:22;;;;;;;;;;;5.40;96.80;;;;;;5072766;28;19908;-75
2021/03/29 01:58:48;;;;;;;;;;;5.20;97.00;;;;;;5073158;28;20327;-75
2021/03/29 02:01:13;;;;;;;;;;;5.10;97.00;;;;;;5073110;28;19960;-75
2021/03/29 02:03:40;;;;;;;;;;;5.00;97.10;;;;;;5073141;28;19947;-75
2021/03/29 02:06:06;;;;;;;;;;;5.00;97.10;;;;;;5071414;28;19915;-75
2021/03/29 02:08:32;;;;;;;;;;;4.90;97.20;;;;;;5073093;28;19909;-75
2021/03/29 02:10:58;;;;;;;;;;;4.80;97.30;;;;;;5073034;28;19930;-75
2021/03/29 02:13:29;;;;;;;;;;;4.70;97.50;;;;;;5072936;28;20361;-75
2021/03/29 02:15:57;;;;;;;;;;;4.70;97.60;;;;;;5072556;28;19959;-75
2021/03/29 02:18:24;;;;;;;;;;;4.70;97.80;;;;;;5072755;28;19912;-75
2021/03/29 02:20:49;;;;;;;;;;;4.70;97.80;;;;;;5072938;28;19916;-76
2021/03/29 02:23:17;;;;;;;;;;;4.50;97.80;;;;;;5068550;28;20008;-76
2021/03/29 02:25:44;;;;;;;;;;;4.40;98.10;;;;;;5072214;28;19916;-76
2021/03/29 02:28:10;;;;;;;;;;;4.20;98.40;;;;;;5072502;28;20366;-76
2021/03/29 02:30:42;;;;;;;;;;;4.20;98.50;;;;;;5071447;28;19930;-76
2021/03/29 02:33:09;;;;;;;;;;;4.20;98.60;;;;;;5072546;28;19912;-76
2021/03/29 02:35:36;;;;;;;;;;;4.30;99.00;;;;;;5070988;28;19917;-76
2021/03/29 02:38:02;;;;;;;;;;;4.30;98.80;;;;;;5072308;28;19912;-76
2021/03/29 02:40:28;;;;;;;;;;;4.30;98.90;;;;;;5073087;28;19923;-76
2021/03/29 02:42:57;;;;;;;;;;;4.20;99.10;;;;;;5072233;28;20308;-76
2021/03/29 02:45:24;;;;;;;;;;;4.10;99.30;;;;;;5072276;28;19909;-76
2021/03/29 02:47:50;;;;;;;;;;;4.10;99.40;;;;;;5070711;28;19995;-75
2021/03/29 02:50:18;;;;;;;;;;;4.10;99.50;;;;;;5071064;28;19956;-76
2021/03/29 02:52:46;;;;;;;;;;;4.10;99.50;;;;;;5072189;28;19915;-76
2021/03/29 02:55:13;;;;;;;;;;;4.00;99.60;;;;;;5067956;28;20483;-76
2021/03/29 02:57:40;;;;;;;;;;;4.00;99.70;;;;;;5071709;28;20206;-76
2021/03/29 03:00:11;;;;;;;;;;;4.00;99.90;;;;;;5072177;28;19920;-76
2021/03/29 03:02:36;;;;;;;;;;;4.00;99.80;;;;;;5071715;28;19995;-75
2021/03/29 03:05:09;;;;;;;;;;;4.00;99.80;;;;;;5071860;28;19958;-75
2021/03/29 03:07:35;;;;;;;;;;;3.90;99.90;;;;;;5071483;28;20386;-76
2021/03/29 03:10:03;;;;;;;;;;;3.80;99.90;;;;;;5071691;28;19909;-76
2021/03/29 03:12:29;;;;;;;;;;;3.90;99.90;;;;;;5070470;28;19914;-76
2021/03/29 03:14:55;;;;;;;;;;;3.80;99.90;;;;;;5071689;28;19923;-75
2021/03/29 03:17:20;;;;;;;;;;;3.80;99.90;;;;;;5071576;28;19912;-76
2021/03/29 03:19:46;;;;;;;;;;;3.70;99.90;;;;;;5071492;28;20332;-75
2021/03/29 03:22:12;;;;;;;;;;;3.70;99.90;;;;;;5071506;28;19909;-76
2021/03/29 03:24:38;;;;;;;;;;;3.70;99.90;;;;;;5067289;28;20003;-76
2021/03/29 03:27:07;;;;;;;;;;;3.70;99.90;;;;;;5071059;28;19948;-76
2021/03/29 03:29:37;;;;;;;;;;;3.70;99.90;;;;;;5071463;28;20428;-75
2021/03/29 03:32:03;;;;;;;;;;;3.70;99.90;;;;;;5071338;28;20365;-75
2021/03/29 03:34:29;;;;;;;;;;;3.70;99.90;;;;;;5071557;28;19983;-75
2021/03/29 03:36:54;;;;;;;;;;;3.70;99.90;;;;;;5071680;28;19968;-75
2021/03/29 03:39:21;;;;;;;;;;;3.60;99.90;;;;;;5071222;28;19942;-75
2021/03/29 03:41:46;;;;;;;;;;;3.60;99.90;;;;;;5071375;28;19908;-75
2021/03/29 03:44:13;;;;;;;;;;;3.60;99.90;;;;;;5071336;28;19962;-75
2021/03/29 03:46:40;;;;;;;;;;;3.60;99.90;;;;;;5071115;28;20320;-75
2021/03/29 03:49:10;;;;;;;;;;;3.60;99.90;;;;;;5070048;28;19908;-75
2021/03/29 03:51:36;;;;;;;;;;;3.60;99.90;;;;;;5069913;28;19909;-75
2021/03/29 03:54:02;;;;;;;;;;;3.60;99.90;;;;;;5066991;28;20641;-75
2021/03/29 03:56:32;;;;;;;;;;;3.50;99.90;;;;;;5070287;28;19908;-75
2021/03/29 03:58:57;;;;;;;;;;;3.50;99.90;;;;;;5071058;28;19920;-75
2021/03/29 04:01:23;;;;;;;;;;;3.40;99.90;;;;;;5071361;28;20281;-75
2021/03/29 04:03:48;;;;;;;;;;;3.30;99.90;;;;;;5071196;28;19909;-76
2021/03/29 04:06:14;;;;;;;;;;;3.30;99.90;;;;;;5070638;28;19970;-75
2021/03/29 04:08:40;;;;;;;;;;;3.30;99.90;;;;;;5071156;28;19912;-75
2021/03/29 04:11:06;;;;;;;;;;;3.30;99.90;;;;;;5071040;28;20003;-75
2021/03/29 04:13:32;;;;;;;;;;;3.30;99.90;;;;;;5071108;28;19908;-75
2021/03/29 04:15:59;;;;;;;;;;;3.20;99.90;;;;;;5070691;28;19908;-75
2021/03/29 04:18:24;;;;;;;;;;;3.20;99.90;;;;;;5071055;28;20197;-75
2021/03/29 04:20:51;;;;;;;;;;;3.10;99.90;;;;;;5070958;28;19920;-75
2021/03/29 04:23:17;;;;;;;;;;;3.00;99.90;;;;;;5067983;28;19908;-77
2021/03/29 04:25:43;;;;;;;;;;;3.00;99.90;;;;;;5070165;28;20289;-75
2021/03/29 04:28:09;;;;;;;;;;;3.00;99.90;;;;;;5071061;28;19908;-76
2021/03/29 04:30:34;;;;;;;;;;;3.00;99.90;;;;;;5069802;28;20406;-77
2021/03/29 04:33:00;;;;;;;;;;;2.90;99.90;;;;;;5069681;28;19947;-76
2021/03/29 04:35:25;;;;;;;;;;;2.80;99.90;;;;;;5069461;28;19962;-76
2021/03/29 04:37:54;;;;;;;;;;;2.70;99.90;;;;;;5069378;28;19909;-75
2021/03/29 04:40:20;;;;;;;;;;;2.60;99.90;;;;;;5069608;28;20380;-75
2021/03/29 04:42:46;;;;;;;;;;;2.60;99.90;;;;;;5069515;28;19908;-77
2021/03/29 04:45:12;;;;;;;;;;;2.70;99.90;;;;;;5069417;28;19966;-76
2021/03/29 04:47:38;;;;;;;;;;;2.60;99.90;;;;;;5069028;28;20415;-76
2021/03/29 04:50:04;;;;;;;;;;;2.70;99.90;;;;;;5070623;28;19909;-75
2021/03/29 04:52:30;;;;;;;;;;;2.70;99.90;;;;;;5070572;28;19919;-76
2021/03/29 04:54:55;;;;;;;;;;;2.70;99.90;;;;;;5066501;28;19908;-76
2021/03/29 04:57:21;;;;;;;;;;;2.60;99.90;;;;;;5070283;28;19947;-77
2021/03/29 04:59:46;;;;;;;;;;;2.60;99.90;;;;;;5070515;28;20316;-76
2021/03/29 05:02:12;;;;;;;;;;;2.70;99.90;;;;;;5069529;28;19915;-76
2021/03/29 05:04:37;;;;;;;;;;;2.70;99.90;;;;;;5070890;28;19912;-77
2021/03/29 05:07:12;;;;;;;;;;;2.70;99.90;;;;;;5069306;28;19954;-77
2021/03/29 05:09:38;;;;;;;;;;;2.60;99.90;;;;;;5072543;28;19947;-76
2021/03/29 05:12:09;;;;;;;;;;;2.60;99.90;;;;;;5073153;28;20384;-76
2021/03/29 05:14:35;;;;;;;;;;;2.60;99.90;;;;;;5073199;28;19999;-76
2021/03/29 05:17:01;;;;;;;;;;;2.70;99.90;;;;;;5074451;28;19952;-76
2021/03/29 05:19:27;;;;;;;;;;;2.80;99.90;;;;;;5072795;28;19944;-76
2021/03/29 05:21:52;;;;;;;;;;;2.80;99.90;;;;;;5072929;28;20416;-76
2021/03/29 05:24:17;;;;;;;;;;;2.80;99.90;;;;;;5070461;28;19959;-77
2021/03/29 05:26:43;;;;;;;;;;;2.80;99.90;;;;;;5094152;28;19915;-76
2021/03/29 05:29:08;;;;;;;;;;;2.80;99.90;;;;;;5092842;28;19919;-76
2021/03/29 05:31:39;;;;;;;;;;;2.80;99.90;;;;;;5092889;28;19908;-77
2021/03/29 05:34:06;;;;;;;;;;;2.80;99.90;;;;;;5094380;28;19915;-76
2021/03/29 05:36:32;;;;;;;;;;;2.90;99.90;;;;;;5092549;28;19992;-76
2021/03/29 05:38:57;;;;;;;;;;;3.00;99.90;;;;;;5092982;28;20356;-76
2021/03/29 05:41:23;;;;;;;;;;;3.00;99.90;;;;;;5092820;28;19908;-75
2021/03/29 05:43:48;;;;;;;;;;;3.10;99.90;;;;;;5092795;28;20373;-76
2021/03/29 05:46:14;;;;;;;;;;;3.20;99.90;;;;;;5093657;28;19962;-76
2021/03/29 05:48:40;;;;;;;;;;;3.20;99.90;;;;;;5092700;28;19919;-76
2021/03/29 05:51:11;;;;;;;;;;;3.20;99.90;;;;;;5092576;28;19908;-76
2021/03/29 05:53:36;;;;;;;;;;;3.30;99.90;;;;;;5081215;28;19915;-77
2021/03/29 05:56:03;;;;;;;;;;;3.40;99.90;;;;;;5071883;28;19912;-77
2021/03/29 06:00:55;;;;;;;;;;;3.60;99.90;;;;;;5073475;28;19944;-76
2021/03/29 06:03:20;;;;;;;;;;;3.60;99.90;;;;;;5073374;28;19995;-76
2021/03/29 06:05:46;;;;;;;;;;;3.70;99.90;;;;;;5071819;28;19913;-76
2021/03/29 06:08:12;;;;;;;;;;;3.90;99.90;;;;;;5068896;28;19912;-77
2021/03/29 06:10:38;;;;;;;;;;;4.00;99.90;;;;;;5071866;28;19909;-76
2021/03/29 06:13:23;;;;;;;;;;;4.20;99.90;;;;;;5071857;28;19909;-76
2021/03/29 06:16:00;;;;;;;;;;;4.30;99.90;;;;;;5066741;28;19913;-76
2021/03/29 06:18:25;;;;;;;;;;;4.50;99.90;;;;;;5064092;28;19956;-76
2021/03/29 06:21:05;;;;;;;;;;;4.60;99.90;;;;;;5065388;28;20285;-77
2021/03/29 06:23:31;;;;;;;;;;;4.80;99.90;;;;;;5068865;28;19913;-77
2021/03/29 06:26:15;;;;;;;;;;;4.90;99.90;;;;;;5072597;28;20315;-76
2021/03/29 06:28:40;;;;;;;;;;;5.10;99.90;;;;;;5072973;28;19915;-76
2021/03/29 06:31:22;;;;;;;;;;;5.30;99.90;;;;;;5072950;28;19909;-75
2021/03/29 06:33:48;;;;;;;;;;;5.50;99.90;;;;;;5071671;28;20376;-76
2021/03/29 06:36:27;;;;;;;;;;;5.70;99.90;;;;;;5070632;28;20003;-75
2021/03/29 06:38:53;;;;;;;;;;;5.80;99.90;;;;;;5061595;28;19916;-77
2021/03/29 06:41:26;;;;;;;;;;;6.00;99.90;;;;;;5061238;28;19913;-77
2021/03/29 06:43:52;;;;;;;;;;;6.20;99.90;;;;;;5071327;28;19948;-77
2021/03/29 06:46:22;;;;;;;;;;;6.40;99.90;;;;;;5070992;28;19966;-77
2021/03/29 06:48:48;;;;;;;;;;;6.60;99.90;;;;;;5072709;28;19934;-75
2021/03/29 06:51:14;;;;;;;;;;;6.70;99.90;;;;;;5071202;28;19913;-77
2021/03/29 06:53:43;;;;;;;;;;;6.80;99.90;;;;;;5066860;28;19912;-74
2021/03/29 06:56:28;;;;;;;;;;;7.00;99.90;;;;;;5054615;28;19995;-74
2021/03/29 06:58:54;;;;;;;;;;;7.10;99.90;;;;;;5059506;28;19970;-75
2021/03/29 07:01:21;;;;;;;;;;;7.30;99.90;;;;;;5065426;28;19913;-76
2021/03/29 07:03:48;;;;;;;;;;;7.40;99.90;;;;;;5056275;28;19909;-75
2021/03/29 07:06:14;;;;;;;;;;;7.60;99.90;;;;;;5064325;28;19908;-73
2021/03/29 07:08:42;;;;;;;;;;;7.70;99.90;;;;;;5063207;28;19921;-75
2021/03/29 07:11:07;;;;;;;;;;;7.90;99.90;;;;;;5070554;28;19915;-76
2021/03/29 07:13:34;;;;;;;;;;;8.10;99.90;;;;;;5069840;28;20273;-76
2021/03/29 07:16:00;;;;;;;;;;;8.20;99.90;;;;;;5069785;28;19920;-77
2021/03/29 07:18:26;;;;;;;;;;;8.50;99.90;;;;;;5069195;28;19920;-77
2021/03/29 07:20:52;;;;;;;;;;;8.60;99.90;;;;;;5067486;28;19908;-76
2021/03/29 07:23:17;;;;;;;;;;;8.80;99.90;;;;;;5066263;28;19977;-76
2021/03/29 07:25:44;;;;;;;;;;;9.00;99.90;;;;;;5070335;28;19916;-74
2021/03/29 07:28:10;;;;;;;;;;;9.20;99.90;;;;;;5070262;28;19999;-77
2021/03/29 07:30:46;;;;;;;;;;;9.40;99.90;;;;;;5069831;28;19997;-76
2021/03/29 07:33:13;;;;;;;;;;;9.60;99.90;;;;;;5067036;28;19908;-75
2021/03/29 07:35:49;;;;;;;;;;;9.80;99.90;;;;;;5063221;28;20051;-75
2021/03/29 07:38:15;;;;;;;;;;;10.00;99.30;;;;;;5062353;28;20434;-77
2021/03/29 07:40:42;;;;;;;;;;;10.30;98.30;;;;;;5069643;28;19951;-77
2021/03/29 07:43:11;;;;;;;;;;;10.50;97.90;;;;;;5071263;28;19908;-77
2021/03/29 07:45:36;;;;;;;;;;;10.90;97.70;;;;;;5064427;28;20009;-76
2021/03/29 07:48:02;;;;;;;;;;;11.60;97.40;;;;;;5064353;28;19970;-77
2021/03/29 07:50:27;;;;;;;;;;;12.30;95.00;;;;;;5060163;28;20385;-77
2021/03/29 07:52:54;;;;;;;;;;;12.70;95.20;;;;;;5056364;28;19971;-77
2021/03/29 07:55:19;;;;;;;;;;;13.10;94.30;;;;;;5050464;28;19919;-76
2021/03/29 07:57:45;;;;;;;;;;;13.20;92.20;;;;;;5051951;28;19909;-77
2021/03/29 08:00:11;;;;;;;;;;;13.50;91.00;;;;;;5051652;28;19913;-78
2021/03/29 08:02:37;;;;;;;;;;;13.90;90.30;;;;;;5069927;28;19919;-77
2021/03/29 08:05:04;;;;;;;;;;;14.50;86.40;;;;;;5072937;28;19913;-77
2021/03/29 08:07:37;;;;;;;;;;;15.40;84.80;;;;;;5062063;28;19966;-75
2021/03/29 08:10:03;;;;;;;;;;;16.20;82.00;;;;;;5069525;28;19924;-78
2021/03/29 08:12:29;;;;;;;;;;;16.90;76.00;;;;;;5073605;28;19939;-78
2021/03/29 08:14:54;;;;;;;;;;;17.50;73.60;;;;;;5073234;28;19908;-77
2021/03/29 08:17:41;;;;;;;;;;;17.90;73.10;;;;;;5073964;28;19912;-78
2021/03/29 08:20:11;;;;;;;;;;;18.50;70.70;;;;;;5075431;28;19913;-77
2021/03/29 08:22:37;;;;;;;;;;;19.00;68.60;;;;;;5061440;28;19912;-78
2021/03/29 08:25:03;;;;;;;;;;;19.50;66.90;;;;;;5072296;28;20287;-78
2021/03/29 08:27:30;;;;;;;;;;;20.00;64.30;;;;;;5068094;28;19913;-79
2021/03/29 08:30:08;;;;;;;;;;;20.40;61.40;;;;;;5067009;28;19931;-79
2021/03/29 08:32:36;;;;;;;;;;;20.70;59.80;;;;;;5061802;28;20019;-79
2021/03/29 08:35:02;;;;;;;;;;;21.00;60.10;;;;;;5063541;28;19913;-79
2021/03/29 08:37:33;;;;;;;;;;;21.20;57.70;;;;;;5058220;28;19912;-79
2021/03/29 08:39:59;;;;;;;;;;;21.60;58.20;;;;;;5065078;28;20412;-78
2021/03/29 08:42:27;;;;;;;;;;;21.90;55.40;;;;;;5074529;28;20003;-78
2021/03/29 08:44:53;;;;;;;;;;;22.10;57.40;;;;;;5085233;28;20307;-79
2021/03/29 08:47:20;;;;;;;;;;;22.40;55.40;;;;;;5093634;28;19943;-79
2021/03/29 08:49:49;;;;;;;;;;;22.60;55.50;;;;;;5093701;28;19915;-79
2021/03/29 08:52:14;;;;;;;;;;;22.80;53.90;;;;;;5095493;28;19909;-79
2021/03/29 08:55:06;;;;;;;;;;;23.20;52.30;;;;;;5097025;28;19934;-79
2021/03/29 08:57:32;;;;;;;;;;;23.40;51.50;;;;;;5095526;28;19983;-79
2021/03/29 08:59:59;;;;;;;;;;;23.70;50.30;;;;;;5094986;28;19912;-79
2021/03/29 09:02:25;;;;;;;;;;;24.00;50.10;;;;;;5074262;28;19917;-79
2021/03/29 09:04:52;;;;;;;;;;;24.20;47.70;;;;;;5069458;28;20012;-79
2021/03/29 09:07:18;;;;;;;;;;;24.10;47.70;;;;;;5072437;28;19908;-78
2021/03/29 09:09:44;;;;;;;;;;;23.70;46.40;;;;;;5058477;28;19920;-79
2021/03/29 09:12:19;;;;;;;;;;;23.40;47.80;;;;;;5079046;28;19912;-77
2021/03/29 09:14:45;;;;;;;;;;;23.10;47.00;;;;;;5076499;28;19934;-79
2021/03/29 09:17:11;;;;;;;;;;;23.00;48.30;;;;;;5078300;28;19909;-80
2021/03/29 09:19:36;;;;;;;;;;;22.80;48.50;;;;;;5078773;28;19956;-79
2021/03/29 09:22:04;;;;;;;;;;;22.70;52.00;;;;;;5077126;28;19912;-77
2021/03/29 09:24:29;;;;;;;;;;;22.90;50.70;;;;;;5075072;28;20071;-79
2021/03/29 09:26:55;;;;;;;;;;;23.00;49.90;;;;;;5075445;28;19999;-79
2021/03/29 09:29:22;;;;;;;;;;;23.20;49.70;;;;;;5075751;28;19908;-80
2021/03/29 09:31:48;;;;;;;;;;;23.50;50.00;;;;;;5056170;28;19909;-79
2021/03/29 09:34:13;;;;;;;;;;;23.90;47.90;;;;;;5057904;28;19909;-80
2021/03/29 09:36:39;;;;;;;;;;;24.20;46.50;;;;;;5055433;28;19920;-80
2021/03/29 09:39:12;;;;;;;;;;;24.40;46.90;;;;;;5072025;28;20369;-79
2021/03/29 09:41:47;;;;;;;;;;;24.70;47.60;;;;;;5075530;28;19908;-79
2021/03/29 09:44:12;;;;;;;;;;;25.00;47.40;;;;;;5065124;28;19909;-79
2021/03/29 09:46:38;;;;;;;;;;;25.20;47.80;;;;;;5083426;28;19914;-80
2021/03/29 09:49:04;;;;;;;;;;;25.50;46.20;;;;;;5066414;28;19908;-78
2021/03/29 09:51:29;;;;;;;;;;;25.70;45.60;;;;;;5070907;28;20336;-79
2021/03/29 09:53:55;;;;;;;;;;;25.90;44.60;;;;;;5074065;28;19958;-79
2021/03/29 09:56:30;;;;;;;;;;;26.00;44.40;;;;;;5075554;28;19912;-78
2021/03/29 09:58:56;;;;;;;;;;;26.30;42.60;;;;;;5075350;28;19912;-79
2021/03/29 10:01:23;;;;;;;;;;;26.20;42.90;;;;;;5066341;28;19909;-79
2021/03/29 10:03:52;;;;;;;;;;;26.10;43.00;;;;;;5068529;28;19908;-80
2021/03/29 10:06:17;;;;;;;;;;;25.70;41.40;;;;;;5076607;28;19909;-78
2021/03/29 10:08:53;;;;;;;;;;;25.40;42.30;;;;;;5068173;28;20344;-78
2021/03/29 10:11:18;;;;;;;;;;;25.40;42.80;;;;;;5069268;28;19908;-79
2021/03/29 10:13:44;;;;;;;;;;;25.60;44.20;;;;;;5072462;28;19915;-80
2021/03/29 10:16:22;;;;;;;;;;;25.80;42.90;;;;;;5088331;28;20173;-78
2021/03/29 10:19:05;;;;;;;;;;;26.10;42.40;;;;;;5074735;28;19912;-80
2021/03/29 10:21:31;;;;;;;;;;;26.20;43.40;;;;;;5075799;28;20173;-77
2021/03/29 10:24:13;;;;;;;;;;;26.30;40.30;;;;;;5074860;28;19913;-80
2021/03/29 10:26:38;;;;;;;;;;;26.20;42.60;;;;;;5076853;28;19912;-79
2021/03/29 10:29:05;;;;;;;;;;;25.80;39.40;;;;;;5075493;28;19909;-79
2021/03/29 10:31:32;;;;;;;;;;;25.70;41.70;;;;;;5075727;28;20353;-79
2021/03/29 10:33:58;;;;;;;;;;;25.80;41.60;;;;;;5073397;28;20288;-77
2021/03/29 10:36:25;;;;;;;;;;;25.60;39.10;;;;;;5075126;28;20434;-79
2021/03/29 10:38:51;;;;;;;;;;;25.50;42.00;;;;;;5070771;28;19916;-79
2021/03/29 10:41:16;;;;;;;;;;;25.50;41.10;;;;;;5069116;28;19973;-79
2021/03/29 10:43:42;;;;;;;;;;;25.70;42.00;;;;;;5068632;28;19909;-79
2021/03/29 10:46:08;;;;;;;;;;;25.90;39.80;;;;;;5073483;28;19930;-77
2021/03/29 10:48:34;;;;;;;;;;;26.00;41.50;;;;;;5074856;28;19916;-80
2021/03/29 10:51:00;;;;;;;;;;;26.20;40.60;;;;;;5096040;28;20518;-79
2021/03/29 10:53:25;;;;;;;;;;;26.00;38.70;;;;;;5096571;28;20010;-80
2021/03/29 10:55:51;;;;;;;;;;;26.10;38.40;;;;;;5077102;28;19915;-80
2021/03/29 10:58:16;;;;;;;;;;;26.30;38.80;;;;;;5073095;28;19908;-79
2021/03/29 11:00:42;;;;;;;;;;;26.10;38.60;;;;;;5069840;28;19909;-77
2021/03/29 11:03:07;;;;;;;;;;;25.90;39.30;;;;;;5072671;28;20011;-80
2021/03/29 11:05:33;;;;;;;;;;;25.70;41.30;;;;;;5071390;28;20430;-77
2021/03/29 11:07:58;;;;;;;;;;;26.00;40.20;;;;;;5062586;28;19915;-78
2021/03/29 11:10:23;;;;;;;;;;;26.00;40.00;;;;;;5060817;28;19924;-80
2021/03/29 11:12:49;;;;;;;;;;;26.10;40.30;;;;;;5072083;28;20377;-80
2021/03/29 11:15:15;;;;;;;;;;;26.10;39.30;;;;;;5057803;28;19934;-79
2021/03/29 11:17:41;;;;;;;;;;;26.00;38.70;;;;;;5074702;28;19908;-80
2021/03/29 11:20:07;;;;;;;;;;;25.90;40.70;;;;;;5074948;28;20500;-79
2021/03/29 11:22:32;;;;;;;;;;;25.90;39.50;;;;;;5070169;28;19915;-80
2021/03/29 11:24:58;;;;;;;;;;;26.00;41.10;;;;;;5074789;28;19908;-79
2021/03/29 11:27:23;;;;;;;;;;;26.10;40.90;;;;;;5071898;28;20006;-80
2021/03/29 11:29:49;;;;;;;;;;;26.30;38.80;;;;;;5062469;28;20006;-78
2021/03/29 11:32:14;;;;;;;;;;;26.10;37.00;;;;;;5061913;28;19913;-79
2021/03/29 11:34:40;;;;;;;;;;;25.70;39.40;;;;;;5079685;28;19912;-79
2021/03/29 11:37:05;;;;;;;;;;;25.70;39.10;;;;;;5086000;28;19916;-79
2021/03/29 11:39:31;;;;;;;;;;;25.70;38.10;;;;;;5075859;28;19921;-77
2021/03/29 11:41:56;;;;;;;;;;;25.70;38.90;;;;;;5067296;28;19909;-79
2021/03/29 11:44:22;;;;;;;;;;;25.70;39.80;;;;;;5063859;28;19908;-79
2021/03/29 11:46:47;;;;;;;;;;;25.70;40.00;;;;;;5067501;28;19965;-79
2021/03/29 11:49:13;;;;;;;;;;;25.70;41.10;;;;;;5073141;28;19909;-79
2021/03/29 11:51:38;;;;;;;;;;;25.50;39.60;;;;;;5076348;28;20376;-80
2021/03/29 11:54:05;;;;;;;;;;;25.40;38.40;;;;;;5071689;28;19908;-79
2021/03/29 11:56:33;;;;;;;;;;;25.50;40.40;;;;;;5074783;28;19913;-80
2021/03/29 11:58:59;;;;;;;;;;;25.60;40.10;;;;;;5066076;28;19919;-79
2021/03/29 12:01:47;;;;;;;;;;;25.50;38.70;;;;;;5065929;28;19912;-79
2021/03/29 12:14:20;;;;;;;;;;;24.60;41.20;;;;;;5064426;28;20380;-79
2021/03/29 12:16:47;;;;;;;;;;;24.00;41.70;;;;;;5059743;28;19909;-80
2021/03/29 12:19:14;;;;;;;;;;;23.60;41.70;;;;;;5060537;28;20383;-80
2021/03/29 12:21:41;;;;;;;;;;;23.40;44.00;;;;;;5070595;28;19921;-78
2021/03/29 12:24:13;;;;;;;;;;;23.00;43.70;;;;;;5070262;28;19908;-79
2021/03/29 12:26:39;;;;;;;;;;;22.60;43.50;;;;;;5060216;28;19963;-79
2021/03/29 12:29:06;;;;;;;;;;;22.10;43.80;;;;;;5059385;28;19909;-79
2021/03/29 12:31:39;;;;;;;;;;;21.80;44.10;;;;;;5069400;28;19944;-80
2021/03/29 12:34:05;;;;;;;;;;;21.70;46.00;;;;;;5071167;28;20274;-79
2021/03/29 12:36:33;;;;;;;;;;;21.40;43.20;;;;;;5070251;28;19921;-79
2021/03/29 12:39:10;;;;;;;;;;;20.90;44.30;;;;;;5065487;28;19917;-79
2021/03/29 12:41:41;;;;;;;;;;;20.60;43.50;;;;;;5077037;28;19908;-80
2021/03/29 12:44:14;;;;;;;;;;;20.30;46.50;;;;;;5075254;28;20548;-79
2021/03/29 12:46:41;;;;;;;;;;;20.10;46.60;;;;;;5067060;28;20087;-79
2021/03/29 12:49:13;;;;;;;;;;;20.00;46.60;;;;;;5073937;28;20361;-79
2021/03/29 12:51:39;;;;;;;;;;;20.00;46.80;;;;;;5072601;28;19915;-78
2021/03/29 12:54:12;;;;;;;;;;;20.00;47.90;;;;;;5070579;28;19976;-79
2021/03/29 12:56:38;;;;;;;;;;;20.00;47.30;;;;;;5076359;28;19909;-79
2021/03/29 12:59:04;;;;;;;;;;;20.00;44.90;;;;;;5078069;28;19916;-79
2021/03/29 13:01:31;;;;;;;;;;;19.90;47.90;;;;;;5078544;28;19934;-79
2021/03/29 13:04:41;;;;;;;;;;;20.00;47.90;;;;;;5077133;28;19917;-78
2021/03/29 13:07:13;;;;;;;;;;;20.00;47.00;;;;;;5071794;28;20329;-79
2021/03/29 13:10:04;;;;;;;;;;;20.10;48.60;;;;;;5078012;28;19996;-80
2021/03/29 13:12:30;;;;;;;;;;;20.00;47.50;;;;;;5079262;28;19912;-79
2021/03/29 13:14:56;;;;;;;;;;;20.00;46.30;;;;;;5079531;28;20269;-79
2021/03/29 13:17:21;;;;;;;;;;;19.90;46.60;;;;;;5075809;28;19909;-77
2021/03/29 13:19:47;;;;;;;;;;;19.80;44.80;;;;;;5079474;28;19946;-80
2021/03/29 13:22:12;;;;;;;;;;;19.70;45.80;;;;;;5074396;28;19908;-76
2021/03/29 13:24:38;;;;;;;;;;;19.70;47.60;;;;;;5073013;28;19920;-77
2021/03/29 13:27:03;;;;;;;;;;;19.60;46.60;;;;;;5072748;28;19909;-79
2021/03/29 13:29:29;;;;;;;;;;;19.60;46.80;;;;;;5073791;28;19909;-75
2021/03/29 13:31:55;;;;;;;;;;;19.60;47.70;;;;;;5074139;28;19908;-76
2021/03/29 13:34:20;;;;;;;;;;;19.60;46.80;;;;;;5073252;28;19969;-76
2021/03/29 13:36:46;;;;;;;;;;;19.70;47.50;;;;;;5068131;28;19917;-82
2021/03/29 13:39:11;;;;;;;;;;;19.70;49.40;;;;;;5068652;28;20329;-76
2021/03/29 13:41:38;;;;;;;;;;;19.80;48.30;;;;;;5073466;28;19999;-76
2021/03/29 13:44:05;;;;;;;;;;;19.80;47.40;;;;;;5073422;28;19915;-77
2021/03/29 13:46:31;;;;;;;;;;;19.90;48.90;;;;;;5072231;28;19953;-76
2021/03/29 13:48:57;;;;;;;;;;;19.90;46.70;;;;;;5072672;28;19985;-79
2021/03/29 13:51:23;;;;;;;;;;;19.80;49.50;;;;;;5073087;28;20042;-77
2021/03/29 13:53:57;;;;;;;;;;;19.80;49.00;;;;;;5072902;28;20066;-77
2021/03/29 13:56:23;;;;;;;;;;;19.90;49.70;;;;;;5072053;28;19909;-75
2021/03/29 13:58:48;;;;;;;;;;;20.00;47.90;;;;;;5072430;28;19939;-77
2021/03/29 14:01:15;;;;;;;;;;;20.10;47.90;;;;;;5072917;28;20377;-81
2021/03/29 14:03:41;;;;;;;;;;;20.10;47.30;;;;;;5073007;28;19913;-82
2021/03/29 14:06:07;;;;;;;;;;;20.10;46.20;;;;;;5071181;28;19909;-76
2021/03/29 14:08:32;;;;;;;;;;;20.10;45.90;;;;;;5064010;28;19931;-82
2021/03/29 14:10:58;;;;;;;;;;;20.00;46.40;;;;;;5086701;28;19908;-76
2021/03/29 14:13:23;;;;;;;;;;;20.10;49.30;;;;;;5059943;28;20007;-76
2021/03/29 14:15:50;;;;;;;;;;;20.00;45.70;;;;;;5050940;28;20402;-77
2021/03/29 14:18:16;;;;;;;;;;;20.10;46.60;;;;;;5050710;28;20365;-75
2021/03/29 14:20:41;;;;;;;;;;;20.00;47.70;;;;;;5052103;28;20003;-77
2021/03/29 14:23:07;;;;;;;;;;;20.10;47.30;;;;;;5052088;28;20497;-77
2021/03/29 14:25:32;;;;;;;;;;;20.10;49.80;;;;;;5050592;28;20250;-82
2021/03/29 14:27:58;;;;;;;;;;;20.10;46.60;;;;;;5051415;28;20359;-76
2021/03/29 14:30:24;;;;;;;;;;;20.20;45.30;;;;;;5052435;28;19916;-76
2021/03/29 14:32:50;;;;;;;;;;;20.10;46.40;;;;;;5052082;28;19913;-77
2021/03/29 14:35:23;;;;;;;;;;;20.10;47.30;;;;;;5050219;28;19916;-77
2021/03/29 14:45:40;;;;;;;;;;;20.30;46.70;;;;;;5049556;28;19936;-76